sensor_id;sensor_type;location;lat;lon;timestamp;pressure;altitude;pressure_sealevel;temperature;humidity
19114;BME280;9689;51.052;13.772;2024-03-29T00:00:58;98763.50;;;7.34;64.29
19114;BME280;9689;51.052;13.772;2024-03-29T00:05:57;98773.81;;;7.36;63.84
19114;BME280;9689;51.052;13.772;2024-03-29T00:10:56;98776.34;;;7.37;63.69
19114;BME280;9689;51.052;13.772;2024-03-29T00:15:56;98782.25;;;7.43;63.45
19114;BME280;9689;51.052;13.772;2024-03-29T00:20:55;98785.44;;;7.51;62.97
19114;BME280;9689;51.052;13.772;2024-03-29T00:25:54;98788.44;;;7.39;63.19
19114;BME280;9689;51.052;13.772;2024-03-29T00:30:53;98784.22;;;7.34;63.60
19114;BME280;9689;51.052;13.772;2024-03-29T00:35:53;98789.28;;;7.39;63.85
19114;BME280;9689;51.052;13.772;2024-03-29T00:40:52;98794.88;;;7.25;64.27
19114;BME280;9689;51.052;13.772;2024-03-29T00:45:50;98808.84;;;7.21;64.20
19114;BME280;9689;51.052;13.772;2024-03-29T00:50:49;98820.81;;;6.96;65.27
19114;BME280;9689;51.052;13.772;2024-03-29T00:55:50;98822.31;;;7.03;65.21
19114;BME280;9689;51.052;13.772;2024-03-29T01:00:49;98819.53;;;7.09;65.00
19114;BME280;9689;51.052;13.772;2024-03-29T01:05:47;98819.16;;;6.93;66.34
19114;BME280;9689;51.052;13.772;2024-03-29T01:10:46;98830.41;;;6.92;66.43
19114;BME280;9689;51.052;13.772;2024-03-29T01:15:46;98838.31;;;6.88;66.82
19114;BME280;9689;51.052;13.772;2024-03-29T01:20:45;98839.84;;;6.64;67.96
19114;BME280;9689;51.052;13.772;2024-03-29T01:25:44;98853.63;;;6.64;67.93
19114;BME280;9689;51.052;13.772;2024-03-29T01:30:43;98855.81;;;6.47;68.39
19114;BME280;9689;51.052;13.772;2024-03-29T01:35:43;98869.31;;;6.58;68.78
19114;BME280;9689;51.052;13.772;2024-03-29T01:40:42;98854.59;;;6.60;68.56
19114;BME280;9689;51.052;13.772;2024-03-29T01:45:41;98847.69;;;6.61;68.06
19114;BME280;9689;51.052;13.772;2024-03-29T01:50:43;98850.94;;;6.67;67.32
19114;BME280;9689;51.052;13.772;2024-03-29T01:55:43;98844.94;;;6.67;67.61
19114;BME280;9689;51.052;13.772;2024-03-29T02:00:48;98837.16;;;6.67;67.99
19114;BME280;9689;51.052;13.772;2024-03-29T02:05:52;98836.47;;;6.62;67.89
19114;BME280;9689;51.052;13.772;2024-03-29T02:10:54;98839.09;;;6.59;67.70
19114;BME280;9689;51.052;13.772;2024-03-29T02:15:54;98834.78;;;6.59;66.89
19114;BME280;9689;51.052;13.772;2024-03-29T02:20:55;98822.88;;;6.54;67.13
19114;BME280;9689;51.052;13.772;2024-03-29T02:25:56;98823.94;;;6.46;67.85
19114;BME280;9689;51.052;13.772;2024-03-29T02:30:56;98823.41;;;6.65;66.17
19114;BME280;9689;51.052;13.772;2024-03-29T02:35:56;98819.94;;;6.66;66.42
19114;BME280;9689;51.052;13.772;2024-03-29T02:40:57;98834.06;;;6.54;67.82
19114;BME280;9689;51.052;13.772;2024-03-29T02:45:57;98835.88;;;6.50;67.41
19114;BME280;9689;51.052;13.772;2024-03-29T02:50:56;98842.00;;;6.48;68.18
19114;BME280;9689;51.052;13.772;2024-03-29T02:55:57;98834.28;;;6.46;68.92
19114;BME280;9689;51.052;13.772;2024-03-29T03:00:57;98841.50;;;6.34;68.80
19114;BME280;9689;51.052;13.772;2024-03-29T03:06:04;98849.34;;;6.31;69.32
19114;BME280;9689;51.052;13.772;2024-03-29T03:11:05;98840.84;;;6.27;69.66
19114;BME280;9689;51.052;13.772;2024-03-29T03:16:05;98845.81;;;6.33;68.91
19114;BME280;9689;51.052;13.772;2024-03-29T03:21:05;98854.47;;;6.32;69.00
19114;BME280;9689;51.052;13.772;2024-03-29T03:26:06;98861.50;;;6.29;69.37
19114;BME280;9689;51.052;13.772;2024-03-29T03:31:06;98864.88;;;6.31;68.81
19114;BME280;9689;51.052;13.772;2024-03-29T03:36:06;98863.19;;;6.30;69.20
19114;BME280;9689;51.052;13.772;2024-03-29T03:41:07;98847.41;;;6.39;68.73
19114;BME280;9689;51.052;13.772;2024-03-29T03:46:07;98832.03;;;6.34;68.85
19114;BME280;9689;51.052;13.772;2024-03-29T03:51:07;98837.06;;;6.39;69.55
19114;BME280;9689;51.052;13.772;2024-03-29T03:56:08;98854.38;;;6.37;69.52
19114;BME280;9689;51.052;13.772;2024-03-29T04:01:07;98846.31;;;6.47;68.38
19114;BME280;9689;51.052;13.772;2024-03-29T04:06:07;98835.22;;;6.44;68.81
19114;BME280;9689;51.052;13.772;2024-03-29T04:11:08;98834.13;;;6.51;68.54
19114;BME280;9689;51.052;13.772;2024-03-29T04:16:08;98830.34;;;6.64;66.83
19114;BME280;9689;51.052;13.772;2024-03-29T04:21:08;98835.56;;;6.63;67.18
19114;BME280;9689;51.052;13.772;2024-03-29T04:26:09;98837.25;;;6.64;67.46
19114;BME280;9689;51.052;13.772;2024-03-29T04:31:08;98830.06;;;6.73;66.74
19114;BME280;9689;51.052;13.772;2024-03-29T04:36:09;98845.44;;;6.79;67.04
19114;BME280;9689;51.052;13.772;2024-03-29T04:41:10;98838.44;;;6.83;66.19
19114;BME280;9689;51.052;13.772;2024-03-29T04:46:11;98820.41;;;6.80;66.70
19114;BME280;9689;51.052;13.772;2024-03-29T04:51:11;98816.50;;;6.65;67.06
19114;BME280;9689;51.052;13.772;2024-03-29T04:56:12;98812.84;;;6.72;67.37
19114;BME280;9689;51.052;13.772;2024-03-29T05:01:12;98815.28;;;6.78;67.01
19114;BME280;9689;51.052;13.772;2024-03-29T05:06:11;98833.16;;;6.86;66.87
19114;BME280;9689;51.052;13.772;2024-03-29T05:11:12;98822.69;;;6.91;67.10
19114;BME280;9689;51.052;13.772;2024-03-29T05:16:13;98812.56;;;7.11;66.35
19114;BME280;9689;51.052;13.772;2024-03-29T05:21:13;98825.50;;;7.41;65.07
19114;BME280;9689;51.052;13.772;2024-03-29T05:26:14;98818.56;;;7.69;64.58
19114;BME280;9689;51.052;13.772;2024-03-29T05:31:14;98830.53;;;7.73;64.63
19114;BME280;9689;51.052;13.772;2024-03-29T05:36:14;98824.75;;;7.65;64.92
19114;BME280;9689;51.052;13.772;2024-03-29T05:41:15;98805.47;;;7.72;64.65
19114;BME280;9689;51.052;13.772;2024-03-29T05:46:15;98808.78;;;7.77;64.33
19114;BME280;9689;51.052;13.772;2024-03-29T05:51:15;98829.47;;;7.79;64.57
19114;BME280;9689;51.052;13.772;2024-03-29T05:56:16;98841.59;;;7.78;64.14
19114;BME280;9689;51.052;13.772;2024-03-29T06:01:16;98825.59;;;7.92;64.03
19114;BME280;9689;51.052;13.772;2024-03-29T06:06:15;98833.31;;;7.93;63.95
19114;BME280;9689;51.052;13.772;2024-03-29T06:11:21;98841.94;;;7.94;63.52
19114;BME280;9689;51.052;13.772;2024-03-29T06:16:24;98834.66;;;8.05;62.60
19114;BME280;9689;51.052;13.772;2024-03-29T06:21:42;98855.44;;;8.30;62.26
19114;BME280;9689;51.052;13.772;2024-03-29T06:26:43;98863.53;;;8.47;61.81
19114;BME280;9689;51.052;13.772;2024-03-29T06:31:43;98858.13;;;8.54;61.33
19114;BME280;9689;51.052;13.772;2024-03-29T06:36:42;98868.41;;;8.57;61.00
19114;BME280;9689;51.052;13.772;2024-03-29T06:41:43;98879.38;;;8.65;61.24
19114;BME280;9689;51.052;13.772;2024-03-29T06:46:43;98879.25;;;8.68;60.38
19114;BME280;9689;51.052;13.772;2024-03-29T06:51:43;98888.66;;;8.72;60.77
19114;BME280;9689;51.052;13.772;2024-03-29T06:56:44;98893.31;;;8.87;60.11
19114;BME280;9689;51.052;13.772;2024-03-29T07:01:43;98890.59;;;9.14;59.82
19114;BME280;9689;51.052;13.772;2024-03-29T07:06:43;98883.47;;;9.19;59.18
19114;BME280;9689;51.052;13.772;2024-03-29T07:11:48;98888.81;;;9.38;58.53
19114;BME280;9689;51.052;13.772;2024-03-29T07:16:48;98891.41;;;9.39;58.62
19114;BME280;9689;51.052;13.772;2024-03-29T07:21:48;98899.56;;;9.52;57.31
19114;BME280;9689;51.052;13.772;2024-03-29T07:26:52;98892.94;;;9.67;56.39
19114;BME280;9689;51.052;13.772;2024-03-29T07:31:51;98897.03;;;9.72;54.91
19114;BME280;9689;51.052;13.772;2024-03-29T07:36:51;98894.81;;;9.85;54.51
19114;BME280;9689;51.052;13.772;2024-03-29T07:41:52;98894.13;;;10.02;53.87
19114;BME280;9689;51.052;13.772;2024-03-29T07:46:52;98890.09;;;10.15;53.47
19114;BME280;9689;51.052;13.772;2024-03-29T07:51:52;98891.56;;;10.44;53.27
19114;BME280;9689;51.052;13.772;2024-03-29T07:56:53;98882.56;;;10.71;52.77
19114;BME280;9689;51.052;13.772;2024-03-29T08:01:53;98892.94;;;10.92;51.85
19114;BME280;9689;51.052;13.772;2024-03-29T08:06:53;98896.91;;;11.21;52.66
19114;BME280;9689;51.052;13.772;2024-03-29T08:11:54;98893.28;;;11.61;51.94
19114;BME280;9689;51.052;13.772;2024-03-29T08:16:54;98899.75;;;11.71;49.05
19114;BME280;9689;51.052;13.772;2024-03-29T08:21:54;98926.63;;;12.11;49.79
19114;BME280;9689;51.052;13.772;2024-03-29T08:26:55;98929.38;;;12.08;48.87
19114;BME280;9689;51.052;13.772;2024-03-29T08:31:54;98933.47;;;11.76;47.50
19114;BME280;9689;51.052;13.772;2024-03-29T08:36:54;98942.59;;;11.86;46.64
19114;BME280;9689;51.052;13.772;2024-03-29T08:41:56;98955.53;;;12.06;51.35
19114;BME280;9689;51.052;13.772;2024-03-29T08:46:55;98970.47;;;11.85;47.89
19114;BME280;9689;51.052;13.772;2024-03-29T08:51:57;98950.94;;;11.55;47.33
19114;BME280;9689;51.052;13.772;2024-03-29T08:56:59;98946.78;;;12.07;50.70
19114;BME280;9689;51.052;13.772;2024-03-29T09:02:04;98920.88;;;12.56;50.31
19114;BME280;9689;51.052;13.772;2024-03-29T09:07:05;98886.66;;;12.95;48.68
19114;BME280;9689;51.052;13.772;2024-03-29T09:12:06;98878.22;;;13.71;47.19
19114;BME280;9689;51.052;13.772;2024-03-29T09:17:06;98884.56;;;14.28;45.83
19114;BME280;9689;51.052;13.772;2024-03-29T09:22:08;98890.44;;;14.78;44.31
19114;BME280;9689;51.052;13.772;2024-03-29T09:27:09;98881.53;;;14.80;40.63
19114;BME280;9689;51.052;13.772;2024-03-29T09:32:09;98874.41;;;15.39;40.02
19114;BME280;9689;51.052;13.772;2024-03-29T09:37:09;98867.84;;;15.32;36.32
19114;BME280;9689;51.052;13.772;2024-03-29T09:42:14;98848.19;;;14.96;38.27
19114;BME280;9689;51.052;13.772;2024-03-29T09:47:17;98806.88;;;15.55;36.01
19114;BME280;9689;51.052;13.772;2024-03-29T09:52:18;98798.88;;;15.30;34.66
19114;BME280;9689;51.052;13.772;2024-03-29T09:57:20;98789.75;;;15.36;35.60
19114;BME280;9689;51.052;13.772;2024-03-29T10:02:25;98774.88;;;15.90;36.54
19114;BME280;9689;51.052;13.772;2024-03-29T10:07:27;98763.13;;;15.69;36.66
19114;BME280;9689;51.052;13.772;2024-03-29T10:12:29;98782.31;;;15.15;34.66
19114;BME280;9689;51.052;13.772;2024-03-29T10:17:30;98777.28;;;15.39;36.94
19114;BME280;9689;51.052;13.772;2024-03-29T10:22:29;98779.91;;;15.39;36.44
19114;BME280;9689;51.052;13.772;2024-03-29T10:27:30;98777.19;;;15.41;34.22
19114;BME280;9689;51.052;13.772;2024-03-29T10:32:30;98770.13;;;15.82;34.22
19114;BME280;9689;51.052;13.772;2024-03-29T10:37:30;98763.34;;;16.18;34.04
19114;BME280;9689;51.052;13.772;2024-03-29T10:42:33;98738.84;;;16.43;32.82
19114;BME280;9689;51.052;13.772;2024-03-29T10:47:37;98736.53;;;16.77;32.75
19114;BME280;9689;51.052;13.772;2024-03-29T10:52:38;98721.50;;;16.53;32.86
19114;BME280;9689;51.052;13.772;2024-03-29T10:57:41;98716.06;;;16.93;32.33
19114;BME280;9689;51.052;13.772;2024-03-29T11:02:48;98713.78;;;16.88;32.42
19114;BME280;9689;51.052;13.772;2024-03-29T11:07:49;98718.69;;;17.30;32.51
19114;BME280;9689;51.052;13.772;2024-03-29T11:12:58;98720.53;;;17.40;32.23
19114;BME280;9689;51.052;13.772;2024-03-29T11:17:59;98726.56;;;17.53;32.56
19114;BME280;9689;51.052;13.772;2024-03-29T11:23:01;98736.56;;;17.13;32.85
19114;BME280;9689;51.052;13.772;2024-03-29T11:28:06;98730.22;;;17.16;33.01
19114;BME280;9689;51.052;13.772;2024-03-29T11:33:07;98727.34;;;16.82;32.03
19114;BME280;9689;51.052;13.772;2024-03-29T11:38:06;98746.91;;;16.91;32.15
19114;BME280;9689;51.052;13.772;2024-03-29T11:43:08;98752.84;;;16.82;31.99
19114;BME280;9689;51.052;13.772;2024-03-29T11:48:10;98750.19;;;16.94;32.38
19114;BME280;9689;51.052;13.772;2024-03-29T11:53:12;98738.91;;;16.67;31.62
19114;BME280;9689;51.052;13.772;2024-03-29T11:58:13;98734.84;;;16.76;32.21
19114;BME280;9689;51.052;13.772;2024-03-29T12:03:14;98732.09;;;16.90;32.26
19114;BME280;9689;51.052;13.772;2024-03-29T12:08:14;98738.88;;;16.69;32.82
19114;BME280;9689;51.052;13.772;2024-03-29T12:13:17;98743.69;;;16.75;33.55
19114;BME280;9689;51.052;13.772;2024-03-29T12:18:19;98740.81;;;16.90;33.74
19114;BME280;9689;51.052;13.772;2024-03-29T12:23:20;98742.59;;;16.90;33.61
19114;BME280;9689;51.052;13.772;2024-03-29T12:28:21;98755.19;;;17.10;33.12
19114;BME280;9689;51.052;13.772;2024-03-29T12:33:22;98753.63;;;17.08;33.24
19114;BME280;9689;51.052;13.772;2024-03-29T12:38:22;98763.72;;;17.01;34.20
19114;BME280;9689;51.052;13.772;2024-03-29T12:43:23;98756.00;;;17.11;33.72
19114;BME280;9689;51.052;13.772;2024-03-29T12:48:23;98747.47;;;17.20;34.67
19114;BME280;9689;51.052;13.772;2024-03-29T12:53:23;98752.84;;;17.18;34.73
19114;BME280;9689;51.052;13.772;2024-03-29T12:58:24;98758.09;;;17.31;34.63
19114;BME280;9689;51.052;13.772;2024-03-29T13:03:25;98766.94;;;17.30;34.80
19114;BME280;9689;51.052;13.772;2024-03-29T13:08:26;98772.50;;;17.26;34.88
19114;BME280;9689;51.052;13.772;2024-03-29T13:13:27;98763.06;;;17.23;32.49
19114;BME280;9689;51.052;13.772;2024-03-29T13:18:27;98727.88;;;17.24;32.78
19114;BME280;9689;51.052;13.772;2024-03-29T13:23:26;98711.28;;;17.35;33.65
19114;BME280;9689;51.052;13.772;2024-03-29T13:28:27;98702.34;;;17.13;34.11
19114;BME280;9689;51.052;13.772;2024-03-29T13:33:27;98694.31;;;17.15;34.15
19114;BME280;9689;51.052;13.772;2024-03-29T13:38:27;98690.97;;;17.13;34.52
19114;BME280;9689;51.052;13.772;2024-03-29T13:43:28;98683.94;;;17.48;34.42
19114;BME280;9689;51.052;13.772;2024-03-29T13:48:27;98692.81;;;17.47;34.01
19114;BME280;9689;51.052;13.772;2024-03-29T13:53:27;98690.94;;;17.37;35.09
19114;BME280;9689;51.052;13.772;2024-03-29T13:58:30;98675.34;;;17.46;35.81
19114;BME280;9689;51.052;13.772;2024-03-29T14:03:30;98683.84;;;17.26;35.99
19114;BME280;9689;51.052;13.772;2024-03-29T14:08:30;98689.00;;;17.28;36.35
19114;BME280;9689;51.052;13.772;2024-03-29T14:13:31;98673.72;;;17.33;36.00
19114;BME280;9689;51.052;13.772;2024-03-29T14:18:31;98674.03;;;17.28;36.01
19114;BME280;9689;51.052;13.772;2024-03-29T14:23:31;98673.25;;;17.15;36.09
19114;BME280;9689;51.052;13.772;2024-03-29T14:28:32;98671.78;;;17.11;35.95
19114;BME280;9689;51.052;13.772;2024-03-29T14:33:32;98669.50;;;17.06;35.14
19114;BME280;9689;51.052;13.772;2024-03-29T14:38:32;98662.06;;;17.00;36.25
19114;BME280;9689;51.052;13.772;2024-03-29T14:43:33;98664.56;;;17.02;35.08
19114;BME280;9689;51.052;13.772;2024-03-29T14:48:32;98645.25;;;16.90;35.37
19114;BME280;9689;51.052;13.772;2024-03-29T14:53:33;98640.38;;;16.73;35.79
19114;BME280;9689;51.052;13.772;2024-03-29T14:58:34;98637.03;;;16.45;36.43
19114;BME280;9689;51.052;13.772;2024-03-29T15:03:34;98631.91;;;16.31;36.82
19114;BME280;9689;51.052;13.772;2024-03-29T15:08:34;98639.47;;;16.23;37.09
19114;BME280;9689;51.052;13.772;2024-03-29T15:13:35;98643.19;;;16.07;37.08
19114;BME280;9689;51.052;13.772;2024-03-29T15:18:35;98642.53;;;16.04;37.45
19114;BME280;9689;51.052;13.772;2024-03-29T15:23:36;98642.44;;;16.05;37.31
19114;BME280;9689;51.052;13.772;2024-03-29T15:28:37;98654.13;;;16.01;37.32
19114;BME280;9689;51.052;13.772;2024-03-29T15:34:03;98658.66;;;15.99;36.90
19114;BME280;9689;51.052;13.772;2024-03-29T15:39:04;98665.34;;;16.03;37.53
19114;BME280;9689;51.052;13.772;2024-03-29T15:44:07;98681.84;;;15.93;37.53
19114;BME280;9689;51.052;13.772;2024-03-29T15:49:07;98686.47;;;15.76;37.75
19114;BME280;9689;51.052;13.772;2024-03-29T15:54:07;98679.13;;;15.81;37.36
19114;BME280;9689;51.052;13.772;2024-03-29T15:59:12;98677.63;;;15.77;37.40
19114;BME280;9689;51.052;13.772;2024-03-29T16:04:12;98695.50;;;15.85;37.35
19114;BME280;9689;51.052;13.772;2024-03-29T16:09:11;98700.03;;;15.96;36.89
19114;BME280;9689;51.052;13.772;2024-03-29T16:14:12;98700.47;;;16.02;37.19
19114;BME280;9689;51.052;13.772;2024-03-29T16:19:14;98692.88;;;15.98;37.40
19114;BME280;9689;51.052;13.772;2024-03-29T16:24:14;98698.47;;;15.93;37.11
19114;BME280;9689;51.052;13.772;2024-03-29T16:29:16;98703.19;;;16.01;36.97
19114;BME280;9689;51.052;13.772;2024-03-29T16:34:15;98715.63;;;15.99;36.86
19114;BME280;9689;51.052;13.772;2024-03-29T16:39:15;98709.41;;;16.00;37.63
19114;BME280;9689;51.052;13.772;2024-03-29T16:44:16;98710.03;;;15.91;38.54
19114;BME280;9689;51.052;13.772;2024-03-29T16:49:16;98700.94;;;15.69;39.31
19114;BME280;9689;51.052;13.772;2024-03-29T16:54:16;98712.03;;;15.60;39.05
19114;BME280;9689;51.052;13.772;2024-03-29T16:59:17;98715.66;;;15.45;39.57
19114;BME280;9689;51.052;13.772;2024-03-29T17:04:17;98703.78;;;15.39;39.24
19114;BME280;9689;51.052;13.772;2024-03-29T17:09:34;98702.78;;;15.27;39.77
19114;BME280;9689;51.052;13.772;2024-03-29T17:14:36;98701.44;;;15.08;40.09
19114;BME280;9689;51.052;13.772;2024-03-29T17:19:36;98718.81;;;14.96;40.81
19114;BME280;9689;51.052;13.772;2024-03-29T17:24:36;98716.94;;;14.84;40.56
19114;BME280;9689;51.052;13.772;2024-03-29T17:29:38;98719.97;;;14.78;41.29
19114;BME280;9689;51.052;13.772;2024-03-29T17:34:37;98734.50;;;14.69;41.34
19114;BME280;9689;51.052;13.772;2024-03-29T17:39:37;98733.34;;;14.59;41.56
19114;BME280;9689;51.052;13.772;2024-03-29T17:44:38;98748.81;;;14.49;41.84
19114;BME280;9689;51.052;13.772;2024-03-29T17:49:38;98723.75;;;14.45;42.42
19114;BME280;9689;51.052;13.772;2024-03-29T17:54:38;98726.59;;;14.40;43.08
19114;BME280;9689;51.052;13.772;2024-03-29T17:59:39;98719.38;;;14.30;43.71
19114;BME280;9689;51.052;13.772;2024-03-29T18:04:38;98713.13;;;14.18;44.40
19114;BME280;9689;51.052;13.772;2024-03-29T18:09:38;98721.81;;;14.19;44.71
19114;BME280;9689;51.052;13.772;2024-03-29T18:14:39;98727.88;;;14.05;44.96
19114;BME280;9689;51.052;13.772;2024-03-29T18:19:39;98728.75;;;13.90;45.26
19114;BME280;9689;51.052;13.772;2024-03-29T18:24:39;98737.34;;;13.77;45.40
19114;BME280;9689;51.052;13.772;2024-03-29T18:29:40;98749.28;;;13.67;45.65
19114;BME280;9689;51.052;13.772;2024-03-29T18:34:39;98759.59;;;13.54;45.92
19114;BME280;9689;51.052;13.772;2024-03-29T18:39:39;98754.47;;;13.53;46.23
19114;BME280;9689;51.052;13.772;2024-03-29T18:44:40;98762.06;;;13.57;47.31
19114;BME280;9689;51.052;13.772;2024-03-29T18:49:40;98757.59;;;13.44;48.30
19114;BME280;9689;51.052;13.772;2024-03-29T18:54:40;98757.88;;;13.39;48.07
19114;BME280;9689;51.052;13.772;2024-03-29T18:59:41;98754.47;;;13.37;48.29
19114;BME280;9689;51.052;13.772;2024-03-29T19:04:41;98746.31;;;13.27;48.46
19114;BME280;9689;51.052;13.772;2024-03-29T19:09:41;98741.91;;;13.28;48.76
19114;BME280;9689;51.052;13.772;2024-03-29T19:14:42;98746.16;;;13.31;47.87
19114;BME280;9689;51.052;13.772;2024-03-29T19:19:41;98750.59;;;13.28;47.84
19114;BME280;9689;51.052;13.772;2024-03-29T19:24:41;98749.94;;;13.25;48.31
19114;BME280;9689;51.052;13.772;2024-03-29T19:29:48;98755.16;;;13.25;47.85
19114;BME280;9689;51.052;13.772;2024-03-29T19:34:48;98759.94;;;13.17;48.43
19114;BME280;9689;51.052;13.772;2024-03-29T19:39:48;98759.78;;;13.04;48.98
19114;BME280;9689;51.052;13.772;2024-03-29T19:44:49;98756.41;;;12.86;49.70
19114;BME280;9689;51.052;13.772;2024-03-29T19:49:49;98760.41;;;12.76;50.18
19114;BME280;9689;51.052;13.772;2024-03-29T19:54:48;98766.66;;;12.73;50.01
19114;BME280;9689;51.052;13.772;2024-03-29T19:59:50;98780.41;;;12.61;51.16
19114;BME280;9689;51.052;13.772;2024-03-29T20:04:49;98782.88;;;12.47;51.34
19114;BME280;9689;51.052;13.772;2024-03-29T20:09:49;98772.59;;;12.44;51.88
19114;BME280;9689;51.052;13.772;2024-03-29T20:14:50;98767.59;;;12.39;52.54
19114;BME280;9689;51.052;13.772;2024-03-29T20:19:50;98765.53;;;12.29;52.65
19114;BME280;9689;51.052;13.772;2024-03-29T20:24:50;98761.56;;;12.22;53.98
19114;BME280;9689;51.052;13.772;2024-03-29T20:29:51;98759.94;;;12.19;53.42
19114;BME280;9689;51.052;13.772;2024-03-29T20:34:51;98752.13;;;12.02;53.84
19114;BME280;9689;51.052;13.772;2024-03-29T20:39:50;98756.72;;;11.97;54.27
19114;BME280;9689;51.052;13.772;2024-03-29T20:44:51;98752.81;;;11.88;55.25
19114;BME280;9689;51.052;13.772;2024-03-29T20:49:51;98746.97;;;11.66;55.83
19114;BME280;9689;51.052;13.772;2024-03-29T20:54:52;98745.28;;;11.65;56.74
19114;BME280;9689;51.052;13.772;2024-03-29T20:59:53;98750.25;;;11.69;56.40
19114;BME280;9689;51.052;13.772;2024-03-29T21:04:53;98753.41;;;11.58;57.23
19114;BME280;9689;51.052;13.772;2024-03-29T21:10:10;98744.81;;;11.56;57.44
19114;BME280;9689;51.052;13.772;2024-03-29T21:15:13;98756.66;;;11.45;58.71
19114;BME280;9689;51.052;13.772;2024-03-29T21:20:15;98753.56;;;11.37;59.30
19114;BME280;9689;51.052;13.772;2024-03-29T21:25:15;98757.69;;;11.59;61.28
19114;BME280;9689;51.052;13.772;2024-03-29T21:30:16;98763.53;;;11.65;60.98
19114;BME280;9689;51.052;13.772;2024-03-29T21:35:17;98774.03;;;11.63;60.72
19114;BME280;9689;51.052;13.772;2024-03-29T21:40:18;98771.19;;;11.50;62.71
19114;BME280;9689;51.052;13.772;2024-03-29T21:45:19;98773.09;;;11.47;61.65
19114;BME280;9689;51.052;13.772;2024-03-29T21:50:18;98777.28;;;11.32;62.51
19114;BME280;9689;51.052;13.772;2024-03-29T21:55:18;98777.56;;;11.07;63.66
19114;BME280;9689;51.052;13.772;2024-03-29T22:00:20;98774.91;;;11.09;63.62
19114;BME280;9689;51.052;13.772;2024-03-29T22:05:20;98774.56;;;10.97;64.68
19114;BME280;9689;51.052;13.772;2024-03-29T22:10:19;98772.72;;;10.99;65.27
19114;BME280;9689;51.052;13.772;2024-03-29T22:15:21;98776.59;;;11.10;67.28
19114;BME280;9689;51.052;13.772;2024-03-29T22:20:21;98768.25;;;11.20;67.76
19114;BME280;9689;51.052;13.772;2024-03-29T22:25:20;98768.53;;;11.33;68.29
19114;BME280;9689;51.052;13.772;2024-03-29T22:30:21;98762.97;;;11.41;69.19
19114;BME280;9689;51.052;13.772;2024-03-29T22:35:21;98750.00;;;11.39;68.92
19114;BME280;9689;51.052;13.772;2024-03-29T22:40:21;98750.59;;;11.44;68.67
19114;BME280;9689;51.052;13.772;2024-03-29T22:45:22;98753.19;;;11.44;69.51
19114;BME280;9689;51.052;13.772;2024-03-29T22:50:21;98758.97;;;11.51;68.99
19114;BME280;9689;51.052;13.772;2024-03-29T22:55:21;98758.41;;;11.44;69.32
19114;BME280;9689;51.052;13.772;2024-03-29T23:00:22;98760.34;;;11.41;70.57
19114;BME280;9689;51.052;13.772;2024-03-29T23:05:23;98757.44;;;11.47;70.32
19114;BME280;9689;51.052;13.772;2024-03-29T23:10:24;98751.72;;;11.57;70.20
19114;BME280;9689;51.052;13.772;2024-03-29T23:15:25;98760.38;;;11.58;70.86
19114;BME280;9689;51.052;13.772;2024-03-29T23:20:26;98755.38;;;11.53;70.78
19114;BME280;9689;51.052;13.772;2024-03-29T23:25:25;98755.53;;;11.50;71.14
19114;BME280;9689;51.052;13.772;2024-03-29T23:30:26;98758.31;;;11.65;72.09
19114;BME280;9689;51.052;13.772;2024-03-29T23:35:27;98754.78;;;11.66;71.63
19114;BME280;9689;51.052;13.772;2024-03-29T23:40:27;98753.47;;;11.57;72.53
19114;BME280;9689;51.052;13.772;2024-03-29T23:45:28;98754.31;;;11.57;72.70
19114;BME280;9689;51.052;13.772;2024-03-29T23:50:28;98753.78;;;11.68;72.05
19114;BME280;9689;51.052;13.772;2024-03-29T23:55:28;98745.19;;;11.66;72.65
